Loop, Texas
Current Conditions -  °F | °C
As of 10:55 AM on Thursday 23 Oct 2014 (Local Time) from KGNC Reporting Station
Moderate Fog Moderate Fog  
Wind Chill: 58°   Ceiling: 100
Heat Index: 58°   Visibility: 0.5mi
Dew Point: 58°   Wind: 0mph
Humidity: 99%   Direction: NA
Pressure: 30.2"   Gusts: NA
Location:  32.92°N, 102.42°W
Report Text: KGNC 231555Z AUTO 00000KT 1/2SM FG OVC001 14/14 A3020 RMK AO2 T01430142
Loading
Personal Weather Stations






























Interactive Weather Map
Tropical Storm Tracking
New forecast layout! Learn more

10-Day Weather Forecast

Advertisements
Track Severe Weather on mobile